View Sortable Currents For Network
ASOSAWOSCoCoRaHSCOOPDCPISU Soil Moisture
OtherSCANMy FavoritesBy StateRWISRWIS Surface
RWIS TrafficRWIS SoilBy NWS WFOUSCRN

Current AWOS Conditions

** This page will automatically refresh every five minutes.
Sorted by: (Station ID)     Click on a column to sort it.

Add ID: Name: Ob Time   Wind [knots]   Rainfall
Temp (Hi / Lo) DewP Feels RH% Dir Speed Peak Gust
@ Time
Alti Vsby Hour Today
VTIVINTON03:55 AM 61(65/61) 54 0 79 0 05 @ 12:15 AM 30.1 10 0
TVKCenterville03:35 AM 63(68/63) 55 0 77 @ 06:00 PM 30.08 10 0
TNUNEWTON MUNI03:55 AM 63(70/63) 55 0 77 90 88 @ 12:35 AM 30.07 10 0
SXKSioux County03:55 AM 68(72/66) 52 0 56 130 910 @ 12:15 AM 30.04 10 0
SLBStorm Lake03:55 AM 63(72/63) 52 0 68 130 89 @ 12:15 AM 30.07 10 0
SHLSHELDON03:55 AM 66(70/66) 52 0 60 130 710 @ 12:55 AM 30.04 10 0
SDASHENANDOAH MUNI03:55 AM 70(75/70) 55 0 60 0 05 @ 12:15 AM 30.02 10 0
RDKRED OAK03:55 AM 66(73/66) 57 0 73 0 04 @ 01:55 AM 30.04 10 0
PROPerry03:55 AM 61(70/61) 53 0 74 90 47 @ 12:35 AM 30.06 10 0
PEAPELLA03:55 AM 66(71/66) 54 0 66 110 66 @ 02:55 AM 30.08 10 0
OXVKnoxville03:55 AM 66(73/66) 54 0 64 90 67 @ 01:55 AM 30.06 10 0
OOAOskaloosa03:55 AM 67(70/67) 56 0 69 110 88 @ 03:55 AM 30.08 10 0
OLZOELWEIN 09 Jun 09:35 PMSite is Offline
MXOMONTICELLO MUNI03:55 AM 57(66/55) 55 0 94 70 47 @ 01:15 AM 30.11 10 0
MUTMUSCATINE03:55 AM 64(72/64) 52 0 64 100 316 @ 12:15 AM 30.1 10 0
MPZMOUNT PLEASANT03:55 AM 64(70/64) 54 0 68 110 59 @ 02:35 AM 30.09 10 0
LRJLE MARS03:55 AM 66(77/66) 55 0 68 120 1016 @ 01:55 AM 30.02 5 0.03 0.03
IKVANKENY03:55 AM 61(70/61) 54 0 77 0 07 @ 12:55 AM 30.08 10 0
IIBINDEPENDENCE03:55 AM 60(68/60) 52 0 77 130 57 @ 01:15 AM 30.1 10 0
IFAIowa Falls03:55 AM 59(68/59) 53 0 78 100 45 @ 12:55 AM 30.1 10 0
ICLCLARINDA03:55 AM 63(72/63) 59 0 88 0 00 @ 06:00 PM 30.05 10 0
I75Osceola03:55 AM 63(68/63) 56 0 76 80 46 @ 02:55 AM 30.06 10 0
HPTHampton03:55 AM M(0/0) M 0 0 0 03 @ 12:35 AM 30.1 10 0
HNRHARLAN03:55 AM 61(70/61) 59 0 94 0 05 @ 02:55 AM 30.05 10 0
GGIGrinnell03:55 AM 66(69/64) 56 0 71 110 58 @ 03:15 AM 30.1 10 0
FXYForest City03:55 AM 61(64/61) 52 0 72 0 05 @ 03:35 AM 30.1 10 0
FSWFORT MADISON03:55 AM 66(70/66) 54 0 64 100 48 @ 02:15 AM 30.08 10 0
FODFORT DODGE03:56 AM 62(63/60) 52 0 69 110 57 @ 01:30 AM 30.08 10 0
FFLFAIRFIELD03:55 AM 64(68/64) 55 0 73 90 710 @ 02:15 AM 30.08 10 0
EOKKEOKUK MUNI03:55 AM 64(72/64) 55 0 73 100 917 @ 01:55 AM 30.07 10 0
EBSWebster City03:55 AM 61(68/61) 54 0 77 110 68 @ 12:15 AM 30.07 10 0
DNSDENISON03:55 AM 64(68/61) 52 0 64 100 56 @ 01:15 AM 30.06 10 0
DEHDECORAH03:55 AM 55(63/55) 55 0 100 0 03 @ 02:15 AM 30.1 10 0
CWICLINTON03:56 AM 56(65/56) 48 0 75 70 59 @ 12:00 AM 30.12 10 0
CSQCRESTON03:55 AM 61(70/61) 61 0 100 80 66 @ 02:35 AM 30.06 10 0
CNCCHARITON03:55 AM 66(70/66) 57 0 73 7 @ 02:35 AM 30.06 10 0
CKPCherokee03:55 AM 66(68/60) 52 0 61 0 06 @ 12:15 AM 30.06 10 0
CINCARROLL03:55 AM 59(64/59) 55 0 88 140 36 @ 01:55 AM 30.06 10 0
CCYCHARLES CITY03:55 AM 61(66/61) 52 0 72 110 56 @ 12:55 AM 30.1 10 0
CBFCOUNCIL BLUFFS03:55 AM 72(73/72) 52 0 50 180 77 @ 03:55 AM 30.02 10 0
CAVCLARION03:55 AM 66(68/66) 52 0 60 120 910 @ 12:55 AM 30.09 10 0
BNWBOONE MUNI03:55 AM 63(68/63) 54 0 72 100 99 @ 03:55 AM 30.09 10 0
AXAALGONA03:55 AM 63(70/63) 54 0 72 120 67 @ 02:15 AM 30.07 10 0
AWGWASHINGTON03:55 AM 61(66/61) 57 0 88 110 610 @ 02:15 AM 30.07 10 0
AIOATLANTIC03:55 AM 59(64/59) 55 0 88 360 44 @ 12:55 AM 30.04 10 0
ADUAUDUBON03:55 AM 57(59/55) 52 0 82 0 00 @ 06:00 PM 30.07 10 0